This demonstration page uses our WeatherBlox Daily Observations layout. Learn more.

Left ArrowRight Arrow

39.08367, -84.50855

Hourly Observations for April 16, 2021

Temp ( °F °C ) Dew Point ( °F °C ) Humidity (%) Winds ( mph kmh ) Pressure ( in mb ) Visibility ( mi km ) Precip ( " mm )
12:53 am 00:53 Clear 39 3.9 34 1.1 82 82 Calm 30.02 1017 10 16.0934 0 0
1:53 am 01:53 Clear 36 2.2 34 1.1 93 93 NE 3 6 30.02 1017 10 16.0934 0 0
2:53 am 02:53 Clear 36 2.2 33 0.6 89 89 Calm 30 1016 10 16.0934 0 0
3:53 am 03:53 Clear 34 1.1 33 0.6 97 97 Calm 30 1016 10 16.0934 0 0
4:41 am 04:41 Mostly Clear with Mist and Fog 34 1.1 33 0.6 97 97 Calm 30.02 1016 1.75 2.816345 0 0
4:53 am 04:53 Clear with Mist and Fog 34 1.1 33 0.6 97 97 Calm 29.99 1016 1 1.60934 0 0
5:01 am 05:01 Clear with Mist and Fog 33 0.6 32 0 96 96 Calm 30.02 1016 3 4.82802 0 0
5:53 am 05:53 Clear with Mist and Fog 33 0.6 31 -0.6 92 92 Calm 29.99 1016 5 8.0467 0 0
6:37 am 06:37 Clear with Mist and Fog 32 0 30 -1.1 92 92 Calm 30.02 1017 1.5 2.41401 0 0
6:53 am 06:53 Clear with Fog 33 0.6 31 -0.6 92 92 Calm 30 1016 10 16.0934 0 0
7:53 am 07:53 Sunny 35 1.7 33 0.6 93 93 Calm 30.01 1016 10 16.0934 0 0
8:53 am 08:53 Sunny 44 6.7 38 3.3 79 79 S 5 7 30 1016 10 16.0934 0 0
9:53 am 09:53 Sunny 50 10 36 2.2 59 59 W 7 11 29.99 1016 10 16.0934 0 0
11:53 am 11:53 Mostly Cloudy 55 12.8 37 2.8 51 51 NW 8 13 29.99 1016 10 16.0934 0 0
12:53 pm 12:53 Partly Cloudy 55 12.8 37 2.8 51 51 WSW 7 11 29.97 1015 10 16.0934 0 0
1:53 pm 13:53 Partly Cloudy 58 14.4 38 3.3 48 48 W 9 15 29.95 1014 10 16.0934 0 0
2:53 pm 14:53 Partly Cloudy 60 15.6 37 2.8 42 42 WSW 6 9 29.92 1013 10 16.0934 0 0
3:53 pm 15:53 Mostly Sunny 60 15.6 37 2.8 42 42 W 7 11 29.9 1013 10 16.0934 0 0
4:53 pm 16:53 Mostly Cloudy 59 15 36 2.2 42 42 W 9 15 29.89 1012 10 16.0934 0 0
5:53 pm 17:53 Partly Cloudy 60 15.6 37 2.8 42 42 WNW 8 13 29.9 1013 10 16.0934 0 0
6:53 pm 18:53 Mostly Sunny 61 16.1 34 1.1 36 36 VRB 5 7 29.9 1012 10 16.0934 0 0
7:53 pm 19:53 Sunny 58 14.4 35 1.7 42 42 W 6 9 29.9 1012 10 16.0934 0 0
8:53 pm 20:53 Mostly Clear 51 10.6 40 4.4 66 66 Calm 29.91 1013 10 16.0934 0 0
9:53 pm 21:53 Clear 48 8.9 40 4.4 74 74 Calm 29.92 1013 10 16.0934 0 0
10:53 pm 22:53 Clear 44 6.7 39 3.9 83 83 Calm 29.92 1013 10 16.0934 0 0
11:53 pm 23:53 Clear 43 6.1 39 3.9 86 86 Calm 29.91 1013 10 16.0934 0 0

Powered by AerisWeather